Avery, Iowa
Current Conditions -  °F | °C
As of 8:53 AM on Wednesday 26 Nov 2014 (Local Time) from KOTM Reporting Station
Light Snow Light Snow  
Wind Chill: 18°   Ceiling: 2100
Heat Index: 29°   Visibility: 1mi
Dew Point: 25°   Wind: 15mph
Humidity: 85%   Direction: 120°ESE
Pressure: 29.93"   Gusts: NA
Location:  41.0299°N, 92.7795°W
Report Text: KOTM 261453Z AUTO 12013KT 1SM -SN BR BKN021 OVC029 M02/M04 A2993 RMK AO2 SNB09 SLP144 P0000 60000 T10171039 56002
Loading
Personal Weather Stations






























Interactive Weather Map New forecast layout! Learn more

10-Day Weather Forecast

Advertisements
Track Severe Weather on mobile